sensor_id;sensor_type;location;lat;lon;timestamp;P1;durP1;ratioP1;P2;durP2;ratioP2
3781;SDS011;6881;49.962;7.718;2023-02-28T00:00:29;2.73;;;1.67;;
3781;SDS011;6881;49.962;7.718;2023-02-28T00:02:55;2.23;;;1.73;;
3781;SDS011;6881;49.962;7.718;2023-02-28T00:05:21;2.07;;;1.50;;
3781;SDS011;6881;49.962;7.718;2023-02-28T00:07:48;3.30;;;2.27;;
3781;SDS011;6881;49.962;7.718;2023-02-28T00:10:15;2.00;;;1.50;;
3781;SDS011;6881;49.962;7.718;2023-02-28T00:12:45;1.93;;;1.73;;
3781;SDS011;6881;49.962;7.718;2023-02-28T00:15:21;1.97;;;1.50;;
3781;SDS011;6881;49.962;7.718;2023-02-28T00:17:48;3.40;;;3.10;;
3781;SDS011;6881;49.962;7.718;2023-02-28T00:20:13;0.57;;;0.47;;
3781;SDS011;6881;49.962;7.718;2023-02-28T00:22:40;2.17;;;1.47;;
3781;SDS011;6881;49.962;7.718;2023-02-28T00:25:07;2.80;;;1.20;;
3781;SDS011;6881;49.962;7.718;2023-02-28T00:27:33;0.90;;;0.80;;
3781;SDS011;6881;49.962;7.718;2023-02-28T00:30:00;1.53;;;1.40;;
3781;SDS011;6881;49.962;7.718;2023-02-28T00:32:26;1.83;;;1.20;;
3781;SDS011;6881;49.962;7.718;2023-02-28T00:34:51;1.63;;;1.53;;
3781;SDS011;6881;49.962;7.718;2023-02-28T00:37:17;2.10;;;1.60;;
3781;SDS011;6881;49.962;7.718;2023-02-28T00:39:42;1.30;;;1.20;;
3781;SDS011;6881;49.962;7.718;2023-02-28T00:42:07;3.87;;;1.70;;
3781;SDS011;6881;49.962;7.718;2023-02-28T00:44:33;1.80;;;1.70;;
3781;SDS011;6881;49.962;7.718;2023-02-28T00:46:58;2.10;;;1.80;;
3781;SDS011;6881;49.962;7.718;2023-02-28T00:49:25;1.63;;;1.53;;
3781;SDS011;6881;49.962;7.718;2023-02-28T00:51:51;2.80;;;2.10;;
3781;SDS011;6881;49.962;7.718;2023-02-28T00:54:17;2.13;;;1.90;;
3781;SDS011;6881;49.962;7.718;2023-02-28T00:56:42;2.57;;;2.27;;
3781;SDS011;6881;49.962;7.718;2023-02-28T00:59:07;2.70;;;2.50;;
3781;SDS011;6881;49.962;7.718;2023-02-28T01:01:33;3.83;;;2.47;;
3781;SDS011;6881;49.962;7.718;2023-02-28T01:03:58;2.40;;;2.07;;
3781;SDS011;6881;49.962;7.718;2023-02-28T01:06:24;5.10;;;3.13;;
3781;SDS011;6881;49.962;7.718;2023-02-28T01:08:49;2.73;;;2.50;;
3781;SDS011;6881;49.962;7.718;2023-02-28T01:11:15;2.67;;;2.20;;
3781;SDS011;6881;49.962;7.718;2023-02-28T01:13:41;2.57;;;2.37;;
3781;SDS011;6881;49.962;7.718;2023-02-28T01:16:08;2.97;;;2.60;;
3781;SDS011;6881;49.962;7.718;2023-02-28T01:18:33;2.43;;;2.00;;
3781;SDS011;6881;49.962;7.718;2023-02-28T01:21:02;2.23;;;2.00;;
3781;SDS011;6881;49.962;7.718;2023-02-28T01:23:29;3.37;;;2.30;;
3781;SDS011;6881;49.962;7.718;2023-02-28T01:25:54;2.23;;;1.70;;
3781;SDS011;6881;49.962;7.718;2023-02-28T01:28:20;1.93;;;1.77;;
3781;SDS011;6881;49.962;7.718;2023-02-28T01:30:49;2.17;;;1.43;;
3781;SDS011;6881;49.962;7.718;2023-02-28T01:33:15;2.00;;;1.60;;
3781;SDS011;6881;49.962;7.718;2023-02-28T01:35:40;2.00;;;1.80;;
3781;SDS011;6881;49.962;7.718;2023-02-28T01:38:06;2.00;;;1.80;;
3781;SDS011;6881;49.962;7.718;2023-02-28T01:40:31;2.00;;;1.87;;
3781;SDS011;6881;49.962;7.718;2023-02-28T01:42:57;2.60;;;1.80;;
3781;SDS011;6881;49.962;7.718;2023-02-28T01:47:54;2.90;;;2.60;;
3781;SDS011;6881;49.962;7.718;2023-02-28T01:50:23;2.43;;;1.83;;
3781;SDS011;6881;49.962;7.718;2023-02-28T01:52:50;2.23;;;2.03;;
3781;SDS011;6881;49.962;7.718;2023-02-28T01:55:17;2.37;;;1.70;;
3781;SDS011;6881;49.962;7.718;2023-02-28T01:57:46;2.30;;;1.77;;
3781;SDS011;6881;49.962;7.718;2023-02-28T02:00:14;1.83;;;1.70;;
3781;SDS011;6881;49.962;7.718;2023-02-28T02:02:42;2.70;;;1.77;;
3781;SDS011;6881;49.962;7.718;2023-02-28T02:05:10;3.27;;;2.13;;
3781;SDS011;6881;49.962;7.718;2023-02-28T02:07:39;1.73;;;1.63;;
3781;SDS011;6881;49.962;7.718;2023-02-28T02:17:38;1.90;;;1.70;;
3781;SDS011;6881;49.962;7.718;2023-02-28T02:25:56;2.20;;;2.00;;
3781;SDS011;6881;49.962;7.718;2023-02-28T02:28:53;2.93;;;2.00;;
3781;SDS011;6881;49.962;7.718;2023-02-28T02:37:29;1.90;;;1.80;;
3781;SDS011;6881;49.962;7.718;2023-02-28T02:40:14;2.63;;;2.10;;
3781;SDS011;6881;49.962;7.718;2023-02-28T02:42:45;1.97;;;1.80;;
3781;SDS011;6881;49.962;7.718;2023-02-28T02:48:01;3.30;;;2.47;;
3781;SDS011;6881;49.962;7.718;2023-02-28T02:50:29;2.17;;;1.97;;
3781;SDS011;6881;49.962;7.718;2023-02-28T02:53:00;2.17;;;1.90;;
3781;SDS011;6881;49.962;7.718;2023-02-28T02:55:26;2.63;;;2.23;;
3781;SDS011;6881;49.962;7.718;2023-02-28T02:57:53;3.17;;;2.40;;
3781;SDS011;6881;49.962;7.718;2023-02-28T03:00:23;2.10;;;1.90;;
3781;SDS011;6881;49.962;7.718;2023-02-28T03:02:52;3.40;;;2.97;;
3781;SDS011;6881;49.962;7.718;2023-02-28T03:05:19;3.33;;;2.30;;
3781;SDS011;6881;49.962;7.718;2023-02-28T03:07:46;4.27;;;2.40;;
3781;SDS011;6881;49.962;7.718;2023-02-28T03:13:08;9.87;;;2.97;;
3781;SDS011;6881;49.962;7.718;2023-02-28T03:16:03;3.03;;;2.73;;
3781;SDS011;6881;49.962;7.718;2023-02-28T03:18:49;4.43;;;2.80;;
3781;SDS011;6881;49.962;7.718;2023-02-28T03:23:53;3.70;;;2.73;;
3781;SDS011;6881;49.962;7.718;2023-02-28T03:26:25;3.23;;;2.90;;
3781;SDS011;6881;49.962;7.718;2023-02-28T06:09:43;8.87;;;3.97;;
3781;SDS011;6881;49.962;7.718;2023-02-28T06:12:09;5.80;;;4.57;;
3781;SDS011;6881;49.962;7.718;2023-02-28T06:14:35;7.17;;;5.23;;
3781;SDS011;6881;49.962;7.718;2023-02-28T06:17:01;7.67;;;3.77;;
3781;SDS011;6881;49.962;7.718;2023-02-28T06:19:26;5.70;;;4.60;;
3781;SDS011;6881;49.962;7.718;2023-02-28T06:21:53;9.27;;;4.60;;
3781;SDS011;6881;49.962;7.718;2023-02-28T06:24:21;10.83;;;5.90;;
3781;SDS011;6881;49.962;7.718;2023-02-28T06:26:48;10.00;;;5.13;;
3781;SDS011;6881;49.962;7.718;2023-02-28T06:29:14;6.53;;;4.90;;
3781;SDS011;6881;49.962;7.718;2023-02-28T06:31:46;8.80;;;5.70;;
3781;SDS011;6881;49.962;7.718;2023-02-28T06:34:12;7.33;;;5.73;;
3781;SDS011;6881;49.962;7.718;2023-02-28T06:36:38;12.00;;;7.70;;
3781;SDS011;6881;49.962;7.718;2023-02-28T06:39:05;7.70;;;4.63;;
3781;SDS011;6881;49.962;7.718;2023-02-28T06:41:31;16.27;;;6.07;;
3781;SDS011;6881;49.962;7.718;2023-02-28T06:43:56;9.37;;;5.27;;
3781;SDS011;6881;49.962;7.718;2023-02-28T06:46:22;9.40;;;4.47;;
3781;SDS011;6881;49.962;7.718;2023-02-28T06:48:48;6.40;;;4.00;;
3781;SDS011;6881;49.962;7.718;2023-02-28T06:51:15;10.20;;;4.80;;
3781;SDS011;6881;49.962;7.718;2023-02-28T06:53:42;10.77;;;5.67;;
3781;SDS011;6881;49.962;7.718;2023-02-28T06:56:08;6.33;;;4.70;;
3781;SDS011;6881;49.962;7.718;2023-02-28T06:58:36;3.63;;;2.97;;
3781;SDS011;6881;49.962;7.718;2023-02-28T07:01:02;7.60;;;4.33;;
3781;SDS011;6881;49.962;7.718;2023-02-28T07:03:28;8.60;;;5.73;;
3781;SDS011;6881;49.962;7.718;2023-02-28T07:05:53;10.00;;;6.90;;
3781;SDS011;6881;49.962;7.718;2023-02-28T07:08:21;9.50;;;6.33;;
3781;SDS011;6881;49.962;7.718;2023-02-28T07:10:47;6.20;;;4.60;;
3781;SDS011;6881;49.962;7.718;2023-02-28T07:13:12;9.37;;;7.33;;
3781;SDS011;6881;49.962;7.718;2023-02-28T07:15:37;10.43;;;4.80;;
3781;SDS011;6881;49.962;7.718;2023-02-28T07:18:03;5.83;;;4.27;;
3781;SDS011;6881;49.962;7.718;2023-02-28T07:20:29;11.43;;;6.00;;
3781;SDS011;6881;49.962;7.718;2023-02-28T07:22:55;9.63;;;6.20;;
3781;SDS011;6881;49.962;7.718;2023-02-28T07:25:24;8.40;;;5.07;;
3781;SDS011;6881;49.962;7.718;2023-02-28T07:27:53;6.53;;;5.00;;
3781;SDS011;6881;49.962;7.718;2023-02-28T07:30:19;4.20;;;3.83;;
3781;SDS011;6881;49.962;7.718;2023-02-28T07:32:44;9.70;;;4.73;;
3781;SDS011;6881;49.962;7.718;2023-02-28T07:35:10;5.57;;;4.87;;
3781;SDS011;6881;49.962;7.718;2023-02-28T07:37:35;5.67;;;3.87;;
3781;SDS011;6881;49.962;7.718;2023-02-28T07:40:04;4.17;;;3.77;;
3781;SDS011;6881;49.962;7.718;2023-02-28T07:42:33;5.63;;;3.80;;
3781;SDS011;6881;49.962;7.718;2023-02-28T07:45:01;3.87;;;3.50;;
3781;SDS011;6881;49.962;7.718;2023-02-28T07:47:28;11.93;;;4.70;;
3781;SDS011;6881;49.962;7.718;2023-02-28T07:49:54;5.77;;;3.83;;
3781;SDS011;6881;49.962;7.718;2023-02-28T07:52:20;5.47;;;3.93;;
3781;SDS011;6881;49.962;7.718;2023-02-28T07:54:45;8.93;;;4.93;;
3781;SDS011;6881;49.962;7.718;2023-02-28T07:57:10;11.57;;;5.50;;
3781;SDS011;6881;49.962;7.718;2023-02-28T07:59:36;13.50;;;6.37;;
3781;SDS011;6881;49.962;7.718;2023-02-28T08:02:01;3.17;;;2.87;;
3781;SDS011;6881;49.962;7.718;2023-02-28T08:04:27;5.70;;;3.57;;
3781;SDS011;6881;49.962;7.718;2023-02-28T08:06:52;3.80;;;2.90;;
3781;SDS011;6881;49.962;7.718;2023-02-28T08:09:18;3.40;;;2.53;;
3781;SDS011;6881;49.962;7.718;2023-02-28T08:11:44;3.17;;;2.37;;
3781;SDS011;6881;49.962;7.718;2023-02-28T08:14:09;2.60;;;2.10;;
3781;SDS011;6881;49.962;7.718;2023-02-28T08:16:34;2.43;;;2.23;;
3781;SDS011;6881;49.962;7.718;2023-02-28T08:19:00;3.93;;;2.17;;
3781;SDS011;6881;49.962;7.718;2023-02-28T08:21:25;3.00;;;2.37;;
3781;SDS011;6881;49.962;7.718;2023-02-28T08:23:51;3.20;;;2.67;;
3781;SDS011;6881;49.962;7.718;2023-02-28T08:26:17;2.80;;;2.50;;
3781;SDS011;6881;49.962;7.718;2023-02-28T08:28:42;3.30;;;2.10;;
3781;SDS011;6881;49.962;7.718;2023-02-28T08:31:09;4.33;;;2.40;;
3781;SDS011;6881;49.962;7.718;2023-02-28T08:33:35;1.80;;;1.70;;
3781;SDS011;6881;49.962;7.718;2023-02-28T08:36:01;2.13;;;2.03;;
3781;SDS011;6881;49.962;7.718;2023-02-28T08:38:27;2.70;;;2.30;;
3781;SDS011;6881;49.962;7.718;2023-02-28T08:40:59;2.50;;;2.30;;
3781;SDS011;6881;49.962;7.718;2023-02-28T08:43:25;3.40;;;2.53;;
3781;SDS011;6881;49.962;7.718;2023-02-28T08:45:51;4.20;;;2.70;;
3781;SDS011;6881;49.962;7.718;2023-02-28T08:48:17;2.73;;;1.97;;
3781;SDS011;6881;49.962;7.718;2023-02-28T08:50:43;2.60;;;2.23;;
3781;SDS011;6881;49.962;7.718;2023-02-28T08:53:08;3.77;;;2.70;;
3781;SDS011;6881;49.962;7.718;2023-02-28T08:55:33;5.60;;;2.80;;
3781;SDS011;6881;49.962;7.718;2023-02-28T08:57:59;3.20;;;2.40;;
3781;SDS011;6881;49.962;7.718;2023-02-28T09:00:26;4.27;;;2.30;;
3781;SDS011;6881;49.962;7.718;2023-02-28T09:02:51;2.73;;;2.43;;
3781;SDS011;6881;49.962;7.718;2023-02-28T09:05:17;7.33;;;2.37;;
3781;SDS011;6881;49.962;7.718;2023-02-28T09:07:42;3.20;;;2.90;;
3781;SDS011;6881;49.962;7.718;2023-02-28T09:10:08;6.80;;;3.40;;
3781;SDS011;6881;49.962;7.718;2023-02-28T09:12:34;5.10;;;2.87;;
3781;SDS011;6881;49.962;7.718;2023-02-28T09:15:00;4.63;;;2.80;;
3781;SDS011;6881;49.962;7.718;2023-02-28T09:17:26;3.37;;;2.93;;
3781;SDS011;6881;49.962;7.718;2023-02-28T09:19:51;4.27;;;2.90;;
3781;SDS011;6881;49.962;7.718;2023-02-28T09:22:17;4.70;;;2.27;;
3781;SDS011;6881;49.962;7.718;2023-02-28T09:24:42;3.90;;;3.50;;
3781;SDS011;6881;49.962;7.718;2023-02-28T09:27:09;5.50;;;3.00;;
3781;SDS011;6881;49.962;7.718;2023-02-28T09:29:35;4.20;;;2.83;;
3781;SDS011;6881;49.962;7.718;2023-02-28T09:32:00;3.17;;;2.87;;
3781;SDS011;6881;49.962;7.718;2023-02-28T09:34:27;3.80;;;3.00;;
3781;SDS011;6881;49.962;7.718;2023-02-28T09:36:52;5.27;;;3.40;;
3781;SDS011;6881;49.962;7.718;2023-02-28T09:39:20;4.53;;;3.63;;
3781;SDS011;6881;49.962;7.718;2023-02-28T09:41:47;6.43;;;4.47;;
3781;SDS011;6881;49.962;7.718;2023-02-28T09:44:36;3.80;;;3.50;;
3781;SDS011;6881;49.962;7.718;2023-02-28T09:49:42;6.67;;;4.73;;
3781;SDS011;6881;49.962;7.718;2023-02-28T09:52:12;5.57;;;4.77;;
3781;SDS011;6881;49.962;7.718;2023-02-28T09:54:41;5.03;;;3.97;;
3781;SDS011;6881;49.962;7.718;2023-02-28T09:57:08;5.37;;;4.23;;
3781;SDS011;6881;49.962;7.718;2023-02-28T10:02:23;5.37;;;4.87;;
3781;SDS011;6881;49.962;7.718;2023-02-28T10:05:11;6.70;;;4.73;;
3781;SDS011;6881;49.962;7.718;2023-02-28T10:13:01;4.83;;;4.23;;
3781;SDS011;6881;49.962;7.718;2023-02-28T10:15:29;6.13;;;5.53;;
3781;SDS011;6881;49.962;7.718;2023-02-28T10:17:58;4.80;;;4.30;;
3781;SDS011;6881;49.962;7.718;2023-02-28T10:20:25;6.47;;;4.60;;
3781;SDS011;6881;49.962;7.718;2023-02-28T10:22:58;4.67;;;4.27;;
3781;SDS011;6881;49.962;7.718;2023-02-28T10:25:32;7.20;;;3.60;;
3781;SDS011;6881;49.962;7.718;2023-02-28T10:28:01;5.63;;;5.03;;
3781;SDS011;6881;49.962;7.718;2023-02-28T10:30:30;4.10;;;2.70;;
3781;SDS011;6881;49.962;7.718;2023-02-28T10:32:56;4.27;;;3.87;;
3781;SDS011;6881;49.962;7.718;2023-02-28T10:35:22;3.20;;;2.90;;
3781;SDS011;6881;49.962;7.718;2023-02-28T10:37:59;5.53;;;4.03;;
3781;SDS011;6881;49.962;7.718;2023-02-28T10:45:29;4.00;;;3.60;;
3781;SDS011;6881;49.962;7.718;2023-02-28T10:48:10;6.03;;;5.33;;
3781;SDS011;6881;49.962;7.718;2023-02-28T10:50:53;3.70;;;3.30;;
3781;SDS011;6881;49.962;7.718;2023-02-28T10:58:24;6.10;;;4.13;;
3781;SDS011;6881;49.962;7.718;2023-02-28T11:00:51;4.40;;;2.87;;
3781;SDS011;6881;49.962;7.718;2023-02-28T11:03:31;5.37;;;3.87;;
3781;SDS011;6881;49.962;7.718;2023-02-28T11:05:58;5.83;;;4.77;;
3781;SDS011;6881;49.962;7.718;2023-02-28T11:08:23;6.53;;;4.10;;
3781;SDS011;6881;49.962;7.718;2023-02-28T11:10:56;5.33;;;4.17;;
3781;SDS011;6881;49.962;7.718;2023-02-28T11:13:28;6.50;;;4.90;;
3781;SDS011;6881;49.962;7.718;2023-02-28T11:15:59;8.67;;;5.30;;
3781;SDS011;6881;49.962;7.718;2023-02-28T11:21:18;5.47;;;4.93;;
3781;SDS011;6881;49.962;7.718;2023-02-28T11:23:46;5.40;;;4.93;;
3781;SDS011;6881;49.962;7.718;2023-02-28T11:26:12;8.33;;;5.03;;
3781;SDS011;6881;49.962;7.718;2023-02-28T11:28:39;7.73;;;5.20;;
3781;SDS011;6881;49.962;7.718;2023-02-28T11:36:26;5.13;;;4.30;;
3781;SDS011;6881;49.962;7.718;2023-02-28T11:38:53;5.50;;;4.97;;
3781;SDS011;6881;49.962;7.718;2023-02-28T11:47:09;5.33;;;4.80;;
3781;SDS011;6881;49.962;7.718;2023-02-28T11:52:21;5.23;;;4.23;;
3781;SDS011;6881;49.962;7.718;2023-02-28T11:58:04;5.63;;;5.03;;
3781;SDS011;6881;49.962;7.718;2023-02-28T12:03:31;7.20;;;4.43;;
3781;SDS011;6881;49.962;7.718;2023-02-28T12:06:22;5.13;;;4.10;;
3781;SDS011;6881;49.962;7.718;2023-02-28T12:12:02;4.70;;;3.83;;
3781;SDS011;6881;49.962;7.718;2023-02-28T12:20:37;5.33;;;4.80;;
3781;SDS011;6881;49.962;7.718;2023-02-28T12:28:50;5.47;;;4.80;;
3781;SDS011;6881;49.962;7.718;2023-02-28T12:31:21;5.30;;;4.30;;
3781;SDS011;6881;49.962;7.718;2023-02-28T12:33:53;5.73;;;5.00;;
3781;SDS011;6881;49.962;7.718;2023-02-28T12:36:24;8.53;;;5.20;;
3781;SDS011;6881;49.962;7.718;2023-02-28T12:41:51;6.97;;;5.20;;
3781;SDS011;6881;49.962;7.718;2023-02-28T12:44:21;5.53;;;4.40;;
3781;SDS011;6881;49.962;7.718;2023-02-28T12:46:51;5.60;;;4.40;;
3781;SDS011;6881;49.962;7.718;2023-02-28T13:09:19;6.50;;;5.47;;
3781;SDS011;6881;49.962;7.718;2023-02-28T13:11:46;11.03;;;5.50;;
3781;SDS011;6881;49.962;7.718;2023-02-28T13:19:26;6.67;;;4.90;;
3781;SDS011;6881;49.962;7.718;2023-02-28T13:21:53;5.77;;;5.17;;
3781;SDS011;6881;49.962;7.718;2023-02-28T13:27:11;4.90;;;3.70;;
3781;SDS011;6881;49.962;7.718;2023-02-28T13:29:49;8.40;;;5.53;;
3781;SDS011;6881;49.962;7.718;2023-02-28T13:32:20;7.57;;;5.77;;
3781;SDS011;6881;49.962;7.718;2023-02-28T13:37:32;11.13;;;7.20;;
3781;SDS011;6881;49.962;7.718;2023-02-28T13:39:59;5.70;;;5.20;;
3781;SDS011;6881;49.962;7.718;2023-02-28T13:42:46;6.43;;;5.40;;
3781;SDS011;6881;49.962;7.718;2023-02-28T13:45:27;5.40;;;4.90;;
3781;SDS011;6881;49.962;7.718;2023-02-28T13:48:01;8.10;;;5.57;;
3781;SDS011;6881;49.962;7.718;2023-02-28T13:50:35;5.97;;;4.97;;
3781;SDS011;6881;49.962;7.718;2023-02-28T13:53:24;6.63;;;4.97;;
3781;SDS011;6881;49.962;7.718;2023-02-28T14:04:31;7.30;;;4.80;;
3781;SDS011;6881;49.962;7.718;2023-02-28T14:07:03;5.60;;;5.03;;
3781;SDS011;6881;49.962;7.718;2023-02-28T14:11:55;7.03;;;6.33;;
3781;SDS011;6881;49.962;7.718;2023-02-28T14:16:59;7.43;;;4.90;;
3781;SDS011;6881;49.962;7.718;2023-02-28T14:19:28;9.80;;;4.63;;
3781;SDS011;6881;49.962;7.718;2023-02-28T14:22:09;8.03;;;5.50;;
3781;SDS011;6881;49.962;7.718;2023-02-28T14:33:15;9.73;;;5.70;;
3781;SDS011;6881;49.962;7.718;2023-02-28T14:38:57;5.93;;;4.40;;
3781;SDS011;6881;49.962;7.718;2023-02-28T14:44:00;5.87;;;4.80;;
3781;SDS011;6881;49.962;7.718;2023-02-28T14:46:28;7.30;;;5.60;;
3781;SDS011;6881;49.962;7.718;2023-02-28T14:49:00;8.97;;;5.30;;
3781;SDS011;6881;49.962;7.718;2023-02-28T14:51:26;6.40;;;4.40;;
3781;SDS011;6881;49.962;7.718;2023-02-28T14:53:56;7.97;;;6.07;;
3781;SDS011;6881;49.962;7.718;2023-02-28T14:56:48;5.63;;;4.70;;
3781;SDS011;6881;49.962;7.718;2023-02-28T15:05:00;7.03;;;5.20;;
3781;SDS011;6881;49.962;7.718;2023-02-28T15:07:34;4.70;;;4.27;;
3781;SDS011;6881;49.962;7.718;2023-02-28T15:10:12;13.80;;;5.20;;
3781;SDS011;6881;49.962;7.718;2023-02-28T15:12:39;6.13;;;4.93;;
3781;SDS011;6881;49.962;7.718;2023-02-28T15:15:06;6.27;;;5.60;;
3781;SDS011;6881;49.962;7.718;2023-02-28T15:17:38;7.60;;;4.90;;
3781;SDS011;6881;49.962;7.718;2023-02-28T15:20:04;7.20;;;5.67;;
3781;SDS011;6881;49.962;7.718;2023-02-28T15:22:31;9.97;;;5.80;;
3781;SDS011;6881;49.962;7.718;2023-02-28T15:25:01;6.33;;;5.30;;
3781;SDS011;6881;49.962;7.718;2023-02-28T15:27:29;7.43;;;5.57;;
3781;SDS011;6881;49.962;7.718;2023-02-28T15:29:58;9.40;;;5.43;;
3781;SDS011;6881;49.962;7.718;2023-02-28T15:32:31;7.30;;;6.17;;
3781;SDS011;6881;49.962;7.718;2023-02-28T15:34:58;8.00;;;5.27;;
3781;SDS011;6881;49.962;7.718;2023-02-28T15:42:40;6.53;;;4.50;;
3781;SDS011;6881;49.962;7.718;2023-02-28T15:45:05;7.70;;;5.10;;
3781;SDS011;6881;49.962;7.718;2023-02-28T15:47:51;7.43;;;5.77;;
3781;SDS011;6881;49.962;7.718;2023-02-28T15:50:17;4.67;;;4.20;;
3781;SDS011;6881;49.962;7.718;2023-02-28T15:52:43;6.23;;;5.60;;
3781;SDS011;6881;49.962;7.718;2023-02-28T15:55:10;7.70;;;5.27;;
3781;SDS011;6881;49.962;7.718;2023-02-28T15:57:40;8.47;;;5.90;;
3781;SDS011;6881;49.962;7.718;2023-02-28T16:00:10;6.70;;;5.23;;
3781;SDS011;6881;49.962;7.718;2023-02-28T16:02:40;7.83;;;5.50;;
3781;SDS011;6881;49.962;7.718;2023-02-28T16:07:31;7.10;;;5.67;;
3781;SDS011;6881;49.962;7.718;2023-02-28T16:09:57;6.30;;;5.30;;
3781;SDS011;6881;49.962;7.718;2023-02-28T16:12:25;6.50;;;4.10;;
3781;SDS011;6881;49.962;7.718;2023-02-28T16:14:53;7.10;;;5.13;;
3781;SDS011;6881;49.962;7.718;2023-02-28T16:17:26;12.03;;;5.60;;
3781;SDS011;6881;49.962;7.718;2023-02-28T16:19:54;6.53;;;5.03;;
3781;SDS011;6881;49.962;7.718;2023-02-28T16:22:20;6.17;;;5.10;;
3781;SDS011;6881;49.962;7.718;2023-02-28T16:24:45;9.40;;;5.60;;
3781;SDS011;6881;49.962;7.718;2023-02-28T16:27:16;9.77;;;5.70;;
3781;SDS011;6881;49.962;7.718;2023-02-28T16:29:43;8.90;;;5.73;;
3781;SDS011;6881;49.962;7.718;2023-02-28T16:32:10;6.90;;;5.10;;
3781;SDS011;6881;49.962;7.718;2023-02-28T16:34:37;7.90;;;6.33;;
3781;SDS011;6881;49.962;7.718;2023-02-28T16:37:04;7.13;;;5.90;;
3781;SDS011;6881;49.962;7.718;2023-02-28T16:39:30;11.03;;;6.80;;
3781;SDS011;6881;49.962;7.718;2023-02-28T16:41:55;7.10;;;5.00;;
3781;SDS011;6881;49.962;7.718;2023-02-28T16:44:24;7.47;;;5.53;;
3781;SDS011;6881;49.962;7.718;2023-02-28T16:46:52;10.73;;;5.97;;
3781;SDS011;6881;49.962;7.718;2023-02-28T16:49:18;7.97;;;5.37;;
3781;SDS011;6881;49.962;7.718;2023-02-28T16:51:43;12.57;;;6.00;;
3781;SDS011;6881;49.962;7.718;2023-02-28T16:54:08;9.37;;;5.60;;
3781;SDS011;6881;49.962;7.718;2023-02-28T16:56:34;7.50;;;5.87;;
3781;SDS011;6881;49.962;7.718;2023-02-28T16:59:00;9.00;;;6.37;;
3781;SDS011;6881;49.962;7.718;2023-02-28T17:01:26;5.93;;;5.27;;
3781;SDS011;6881;49.962;7.718;2023-02-28T17:03:52;6.67;;;5.60;;
3781;SDS011;6881;49.962;7.718;2023-02-28T17:06:25;9.10;;;6.47;;
3781;SDS011;6881;49.962;7.718;2023-02-28T17:08:53;8.80;;;6.03;;
3781;SDS011;6881;49.962;7.718;2023-02-28T17:11:18;8.50;;;5.77;;
3781;SDS011;6881;49.962;7.718;2023-02-28T17:13:44;7.30;;;5.23;;
3781;SDS011;6881;49.962;7.718;2023-02-28T17:16:29;6.53;;;4.93;;
3781;SDS011;6881;49.962;7.718;2023-02-28T17:18:57;8.10;;;6.03;;
3781;SDS011;6881;49.962;7.718;2023-02-28T17:21:24;7.67;;;5.40;;
3781;SDS011;6881;49.962;7.718;2023-02-28T17:23:49;6.83;;;5.17;;
3781;SDS011;6881;49.962;7.718;2023-02-28T17:26:16;7.13;;;5.37;;
3781;SDS011;6881;49.962;7.718;2023-02-28T17:28:44;7.23;;;5.50;;
3781;SDS011;6881;49.962;7.718;2023-02-28T17:31:11;6.20;;;5.57;;
3781;SDS011;6881;49.962;7.718;2023-02-28T17:33:36;6.00;;;5.50;;
3781;SDS011;6881;49.962;7.718;2023-02-28T17:36:01;7.53;;;5.30;;
3781;SDS011;6881;49.962;7.718;2023-02-28T17:38:27;7.50;;;6.17;;
3781;SDS011;6881;49.962;7.718;2023-02-28T17:40:52;9.80;;;6.97;;
3781;SDS011;6881;49.962;7.718;2023-02-28T17:43:22;8.33;;;5.67;;
3781;SDS011;6881;49.962;7.718;2023-02-28T17:45:53;8.20;;;6.63;;
3781;SDS011;6881;49.962;7.718;2023-02-28T17:48:18;12.20;;;7.07;;
3781;SDS011;6881;49.962;7.718;2023-02-28T17:50:44;10.23;;;6.20;;
3781;SDS011;6881;49.962;7.718;2023-02-28T17:53:10;8.80;;;5.53;;
3781;SDS011;6881;49.962;7.718;2023-02-28T17:55:36;5.17;;;4.50;;
3781;SDS011;6881;49.962;7.718;2023-02-28T17:58:02;6.90;;;5.60;;
3781;SDS011;6881;49.962;7.718;2023-02-28T18:00:28;7.37;;;5.10;;
3781;SDS011;6881;49.962;7.718;2023-02-28T18:02:53;8.40;;;5.47;;
3781;SDS011;6881;49.962;7.718;2023-02-28T18:05:19;9.30;;;6.00;;
3781;SDS011;6881;49.962;7.718;2023-02-28T18:07:44;8.20;;;6.10;;
3781;SDS011;6881;49.962;7.718;2023-02-28T18:10:12;9.63;;;6.47;;
3781;SDS011;6881;49.962;7.718;2023-02-28T18:12:40;7.63;;;5.10;;
3781;SDS011;6881;49.962;7.718;2023-02-28T18:15:06;9.47;;;6.37;;
3781;SDS011;6881;49.962;7.718;2023-02-28T18:17:32;11.87;;;6.87;;
3781;SDS011;6881;49.962;7.718;2023-02-28T18:19:57;6.63;;;5.07;;
3781;SDS011;6881;49.962;7.718;2023-02-28T18:22:24;7.67;;;4.40;;
3781;SDS011;6881;49.962;7.718;2023-02-28T18:24:49;8.63;;;5.03;;
3781;SDS011;6881;49.962;7.718;2023-02-28T18:27:14;7.63;;;5.50;;
3781;SDS011;6881;49.962;7.718;2023-02-28T18:29:40;11.07;;;5.80;;
3781;SDS011;6881;49.962;7.718;2023-02-28T18:32:06;9.47;;;5.13;;
3781;SDS011;6881;49.962;7.718;2023-02-28T18:34:31;6.07;;;4.70;;
3781;SDS011;6881;49.962;7.718;2023-02-28T18:36:56;7.00;;;5.37;;
3781;SDS011;6881;49.962;7.718;2023-02-28T18:39:22;6.30;;;5.37;;
3781;SDS011;6881;49.962;7.718;2023-02-28T18:41:48;6.00;;;4.90;;
3781;SDS011;6881;49.962;7.718;2023-02-28T18:44:13;8.00;;;5.87;;
3781;SDS011;6881;49.962;7.718;2023-02-28T18:46:39;8.87;;;6.10;;
3781;SDS011;6881;49.962;7.718;2023-02-28T18:49:04;7.30;;;4.90;;
3781;SDS011;6881;49.962;7.718;2023-02-28T18:51:30;9.23;;;6.40;;
3781;SDS011;6881;49.962;7.718;2023-02-28T18:53:56;9.50;;;6.57;;
3781;SDS011;6881;49.962;7.718;2023-02-28T18:56:22;7.50;;;5.93;;
3781;SDS011;6881;49.962;7.718;2023-02-28T18:58:48;7.27;;;5.30;;
3781;SDS011;6881;49.962;7.718;2023-02-28T19:01:16;6.20;;;5.13;;
3781;SDS011;6881;49.962;7.718;2023-02-28T19:03:46;7.30;;;5.50;;
3781;SDS011;6881;49.962;7.718;2023-02-28T19:06:12;9.00;;;5.97;;
3781;SDS011;6881;49.962;7.718;2023-02-28T19:08:38;9.30;;;6.00;;
3781;SDS011;6881;49.962;7.718;2023-02-28T19:11:11;6.87;;;4.87;;
3781;SDS011;6881;49.962;7.718;2023-02-28T19:13:40;11.40;;;6.00;;
3781;SDS011;6881;49.962;7.718;2023-02-28T19:16:07;10.47;;;5.43;;
3781;SDS011;6881;49.962;7.718;2023-02-28T19:18:33;7.10;;;5.50;;
3781;SDS011;6881;49.962;7.718;2023-02-28T19:20:59;8.13;;;6.10;;
3781;SDS011;6881;49.962;7.718;2023-02-28T19:23:25;7.40;;;5.83;;
3781;SDS011;6881;49.962;7.718;2023-02-28T19:25:51;13.00;;;6.23;;
3781;SDS011;6881;49.962;7.718;2023-02-28T19:28:16;10.03;;;6.20;;
3781;SDS011;6881;49.962;7.718;2023-02-28T19:30:46;6.97;;;5.20;;
3781;SDS011;6881;49.962;7.718;2023-02-28T19:33:12;9.10;;;5.20;;
3781;SDS011;6881;49.962;7.718;2023-02-28T19:35:39;11.30;;;4.83;;
3781;SDS011;6881;49.962;7.718;2023-02-28T19:38:05;6.90;;;4.60;;
3781;SDS011;6881;49.962;7.718;2023-02-28T19:40:30;7.90;;;5.00;;
3781;SDS011;6881;49.962;7.718;2023-02-28T19:42:56;9.83;;;5.37;;
3781;SDS011;6881;49.962;7.718;2023-02-28T19:45:21;6.53;;;5.07;;
3781;SDS011;6881;49.962;7.718;2023-02-28T19:47:47;5.70;;;4.00;;
3781;SDS011;6881;49.962;7.718;2023-02-28T19:50:12;7.43;;;5.20;;
3781;SDS011;6881;49.962;7.718;2023-02-28T19:52:38;10.37;;;5.67;;
3781;SDS011;6881;49.962;7.718;2023-02-28T19:55:03;10.07;;;4.67;;
3781;SDS011;6881;49.962;7.718;2023-02-28T19:57:29;8.43;;;5.33;;
3781;SDS011;6881;49.962;7.718;2023-02-28T19:59:54;8.17;;;5.80;;
3781;SDS011;6881;49.962;7.718;2023-02-28T20:02:20;9.47;;;6.20;;
3781;SDS011;6881;49.962;7.718;2023-02-28T20:04:47;8.00;;;4.40;;
3781;SDS011;6881;49.962;7.718;2023-02-28T20:07:14;11.57;;;6.10;;
3781;SDS011;6881;49.962;7.718;2023-02-28T20:09:44;8.67;;;5.27;;
3781;SDS011;6881;49.962;7.718;2023-02-28T20:12:10;8.27;;;5.20;;
3781;SDS011;6881;49.962;7.718;2023-02-28T20:14:36;7.60;;;4.73;;
3781;SDS011;6881;49.962;7.718;2023-02-28T20:17:01;6.03;;;5.07;;
3781;SDS011;6881;49.962;7.718;2023-02-28T20:19:27;10.10;;;4.80;;
3781;SDS011;6881;49.962;7.718;2023-02-28T20:21:53;8.47;;;4.33;;
3781;SDS011;6881;49.962;7.718;2023-02-28T20:24:18;7.73;;;5.07;;
3781;SDS011;6881;49.962;7.718;2023-02-28T20:26:47;5.73;;;5.13;;
3781;SDS011;6881;49.962;7.718;2023-02-28T20:29:12;5.37;;;4.77;;
3781;SDS011;6881;49.962;7.718;2023-02-28T20:31:38;6.70;;;5.53;;
3781;SDS011;6881;49.962;7.718;2023-02-28T20:34:04;6.73;;;5.97;;
3781;SDS011;6881;49.962;7.718;2023-02-28T20:36:29;7.83;;;5.60;;
3781;SDS011;6881;49.962;7.718;2023-02-28T20:38:55;8.17;;;5.73;;
3781;SDS011;6881;49.962;7.718;2023-02-28T20:41:21;10.53;;;6.80;;
3781;SDS011;6881;49.962;7.718;2023-02-28T20:43:46;11.17;;;5.90;;